Time;durP1;ratioP1;P1;durP2;ratioP2;P2;SDS_P1;SDS_P2;PMS_P1;PMS_P2;Temp;Humidity;BMP_temperature;BMP_pressure;BME280_temperature;BME280_humidity;BME280_pressure;Samples;Min_cycle;Max_cycle;Signal;HPM_P1;HPM_P2
2021/09/01 00:01:54;;;;;;;;;;;;;;;27.74;37.44;100609.91;5097929;28;839;-29
2021/09/01 00:04:19;;;;;;;;;;;;;;;27.91;37.54;100615.91;5097579;28;807;-30
2021/09/01 00:06:45;;;;;;;;;;;;;;;27.84;37.27;100612.31;5097722;28;1967;-28
2021/09/01 00:09:10;;;;;;;;;;;;;;;27.89;37.25;100600.91;5097116;28;863;-28
2021/09/01 00:11:35;;;;;;;;;;;;;;;27.96;37.10;100609.94;5094908;28;965;-27
2021/09/01 00:14:01;;;;;;;;;;;;;;;27.92;37.01;100612.19;5077550;28;786;-27
2021/09/01 00:16:26;;;;;;;;;;;;;;;27.90;36.88;100603.44;5077709;28;831;-32
2021/09/01 00:18:52;;;;;;;;;;;;;;;28.05;37.01;100591.72;5076755;28;692;-28
2021/09/01 00:21:18;;;;;;;;;;;;;;;28.09;36.93;100590.31;5076877;28;856;-28
2021/09/01 00:23:43;;;;;;;;;;;;;;;28.01;37.08;100585.03;5077264;28;811;-26
2021/09/01 00:26:08;;;;;;;;;;;;;;;28.13;36.95;100588.06;5076470;28;1984;-28
2021/09/01 00:28:34;;;;;;;;;;;;;;;28.04;36.93;100579.22;5096052;28;958;-27
2021/09/01 00:30:59;;;;;;;;;;;;;;;28.08;37.17;100583.22;5097529;28;756;-26
2021/09/01 00:33:24;;;;;;;;;;;;;;;28.05;36.80;100583.59;5096823;28;803;-28
2021/09/01 00:35:49;;;;;;;;;;;;;;;28.10;36.87;100583.84;5097710;28;767;-30
2021/09/01 00:38:15;;;;;;;;;;;;;;;28.14;36.85;100593.28;5097181;28;836;-34
2021/09/01 00:40:40;;;;;;;;;;;;;;;28.20;36.48;100597.03;5096869;28;1177;-26
2021/09/01 00:43:05;;;;;;;;;;;;;;;28.10;36.99;100600.94;5096230;28;946;-28
2021/09/01 00:45:31;;;;;;;;;;;;;;;28.18;36.66;100601.81;5097040;28;816;-28
2021/09/01 00:47:56;;;;;;;;;;;;;;;28.09;36.52;100598.41;5096101;28;1964;-29
2021/09/01 00:50:21;;;;;;;;;;;;;;;28.08;36.90;100602.13;5095938;28;1244;-28
2021/09/01 00:52:47;;;;;;;;;;;;;;;28.13;36.56;100599.69;5096907;28;743;-29
2021/09/01 00:55:12;;;;;;;;;;;;;;;28.05;36.63;100597.97;5095537;28;784;-26
2021/09/01 00:57:38;;;;;;;;;;;;;;;28.15;36.34;100599.50;5085463;28;1001;-29
2021/09/01 01:00:04;;;;;;;;;;;;;;;28.10;36.39;100597.38;5075983;28;819;-27
2021/09/01 01:02:29;;;;;;;;;;;;;;;28.06;36.92;100593.41;5076496;28;728;-27
2021/09/01 01:04:58;;;;;;;;;;;;;;;28.04;36.55;100596.31;5076559;28;807;-27
2021/09/01 01:07:23;;;;;;;;;;;;;;;28.13;36.41;100599.69;5076281;28;1906;-25
2021/09/01 01:09:51;;;;;;;;;;;;;;;28.09;36.70;100599.22;5076385;28;788;-28
2021/09/01 01:12:20;;;;;;;;;;;;;;;28.14;36.38;100595.13;5084367;28;997;-27
2021/09/01 01:14:46;;;;;;;;;;;;;;;27.99;37.11;100587.94;5096380;28;829;-27
2021/09/01 01:17:13;;;;;;;;;;;;;;;28.08;36.67;100594.03;5096499;28;814;-28
2021/09/01 01:19:42;;;;;;;;;;;;;;;28.12;36.80;100595.31;5096352;28;809;-30
2021/09/01 01:22:08;;;;;;;;;;;;;;;28.04;37.15;100609.81;5096159;28;862;-28
2021/09/01 01:24:43;;;;;;;;;;;;;;;28.14;36.58;100585.16;5095736;28;840;-26
2021/09/01 01:27:16;;;;;;;;;;;;;;;28.18;36.45;100589.13;5089084;28;1901;-30
2021/09/01 01:29:41;;;;;;;;;;;;;;;28.16;36.63;100590.38;5076236;28;778;-28
2021/09/01 01:32:07;;;;;;;;;;;;;;;28.16;36.28;100584.97;5076221;28;905;-35
2021/09/01 01:34:32;;;;;;;;;;;;;;;28.20;36.67;100584.38;5076280;28;783;-28
2021/09/01 01:36:57;;;;;;;;;;;;;;;28.19;36.53;100593.53;5076375;28;791;-36
2021/09/01 01:39:23;;;;;;;;;;;;;;;28.24;36.49;100592.94;5075858;28;772;-26
2021/09/01 01:41:48;;;;;;;;;;;;;;;28.21;36.49;100591.44;5076250;28;1120;-26
2021/09/01 01:44:13;;;;;;;;;;;;;;;28.19;36.48;100588.13;5075995;28;894;-30
2021/09/01 01:46:38;;;;;;;;;;;;;;;28.22;36.50;100590.44;5075818;28;1905;-28
2021/09/01 01:49:04;;;;;;;;;;;;;;;28.16;36.67;100593.06;5076142;28;1036;-27
2021/09/01 01:51:29;;;;;;;;;;;;;;;28.15;36.23;100588.69;5075875;28;792;-28
2021/09/01 01:53:54;;;;;;;;;;;;;;;28.27;36.57;100586.28;5075832;28;770;-36
2021/09/01 01:56:20;;;;;;;;;;;;;;;28.26;36.10;100585.44;5076194;28;966;-27
2021/09/01 01:58:45;;;;;;;;;;;;;;;28.24;36.12;100584.81;5075812;28;990;-36
2021/09/01 02:01:10;;;;;;;;;;;;;;;28.23;36.50;100588.53;5075873;28;859;-28
2021/09/01 02:03:36;;;;;;;;;;;;;;;28.18;36.22;100594.53;5076065;28;870;-26
2021/09/01 02:06:01;;;;;;;;;;;;;;;28.26;36.51;100595.44;5075852;28;1975;-37
2021/09/01 02:08:26;;;;;;;;;;;;;;;28.26;36.45;100601.66;5075793;28;847;-30
2021/09/01 02:10:52;;;;;;;;;;;;;;;28.21;36.46;100602.25;5075964;28;797;-27
2021/09/01 02:13:17;;;;;;;;;;;;;;;28.22;36.75;100605.81;5075916;28;958;-28
2021/09/01 02:15:42;;;;;;;;;;;;;;;28.19;36.56;100595.38;5075534;28;795;-26
2021/09/01 02:18:07;;;;;;;;;;;;;;;28.16;36.84;100593.06;5075585;28;744;-36
2021/09/01 02:20:33;;;;;;;;;;;;;;;28.16;37.06;100590.38;5075888;28;772;-26
2021/09/01 02:22:58;;;;;;;;;;;;;;;28.05;36.61;100584.44;5075774;28;787;-28
2021/09/01 02:25:26;;;;;;;;;;;;;;;28.02;36.81;100586.69;5075495;28;846;-26
2021/09/01 02:27:51;;;;;;;;;;;;;;;28.08;36.84;100581.34;5087682;28;1902;-26
2021/09/01 02:30:19;;;;;;;;;;;;;;;28.09;36.33;100588.41;5095749;28;745;-36
2021/09/01 02:32:44;;;;;;;;;;;;;;;28.04;36.74;100587.34;5097980;28;875;-35
2021/09/01 02:35:09;;;;;;;;;;;;;;;27.97;36.65;100584.56;5099601;28;767;-26
2021/09/01 02:37:35;;;;;;;;;;;;;;;28.06;36.58;100591.50;5099939;28;775;-26
2021/09/01 02:40:00;;;;;;;;;;;;;;;28.01;36.79;100599.34;5099163;28;792;-30
2021/09/01 02:42:25;;;;;;;;;;;;;;;27.95;36.94;100589.31;5098506;28;955;-26
2021/09/01 02:44:51;;;;;;;;;;;;;;;27.93;37.13;100605.75;5099070;28;803;-29
2021/09/01 02:47:16;;;;;;;;;;;;;;;27.87;37.04;100610.06;5098998;28;1906;-28
2021/09/01 02:49:41;;;;;;;;;;;;;;;27.93;37.02;100616.56;5099307;28;1334;-36
2021/09/01 02:52:07;;;;;;;;;;;;;;;27.83;37.53;100619.56;5099388;28;776;-28
2021/09/01 02:54:32;;;;;;;;;;;;;;;27.85;37.22;100622.09;5098985;28;763;-27
2021/09/01 02:56:57;;;;;;;;;;;;;;;27.88;37.51;100613.59;5098137;28;957;-27
2021/09/01 02:59:22;;;;;;;;;;;;;;;27.83;37.12;100621.44;5099310;28;906;-28
2021/09/01 03:01:48;;;;;;;;;;;;;;;27.96;37.05;100624.28;5098800;28;764;-26
2021/09/01 03:04:13;;;;;;;;;;;;;;;28.03;37.04;100626.25;5099568;28;775;-28
2021/09/01 03:06:38;;;;;;;;;;;;;;;27.95;36.83;100624.47;5099178;28;1917;-29
2021/09/01 03:09:04;;;;;;;;;;;;;;;27.96;37.23;100624.28;5098465;28;822;-30
2021/09/01 03:11:29;;;;;;;;;;;;;;;27.92;37.11;100624.84;5098186;28;1005;-29
2021/09/01 03:13:54;;;;;;;;;;;;;;;27.91;36.88;100626.72;5099086;28;814;-34
2021/09/01 03:16:19;;;;;;;;;;;;;;;27.86;37.45;100621.88;5098183;28;846;-28
2021/09/01 03:18:45;;;;;;;;;;;;;;;27.20;34.66;100628.13;5099293;28;806;-23
2021/09/01 03:21:10;;;;;;;;;;;;;;;26.83;34.47;100618.03;5098620;28;831;-27
2021/09/01 03:23:36;;;;;;;;;;;;;;;26.58;33.82;100626.34;5098575;28;821;-25
2021/09/01 03:26:01;;;;;;;;;;;;;;;26.59;33.18;100628.00;5098483;28;1955;-25
2021/09/01 03:28:26;;;;;;;;;;;;;;;26.41;33.49;100633.72;5097518;28;938;-25
2021/09/01 03:30:51;;;;;;;;;;;;;;;26.47;32.71;100632.19;5098254;28;800;-26
2021/09/01 03:33:17;;;;;;;;;;;;;;;26.56;32.59;100633.78;5098605;28;767;-29
2021/09/01 03:35:42;;;;;;;;;;;;;;;26.49;32.91;100630.16;5098414;28;775;-27
2021/09/01 03:38:07;;;;;;;;;;;;;;;26.59;32.59;100636.09;5097953;28;847;-26
2021/09/01 03:40:33;;;;;;;;;;;;;;;26.57;32.96;100640.88;5098474;28;806;-28
2021/09/01 03:42:58;;;;;;;;;;;;;;;26.60;33.85;100634.25;5096565;28;930;-24
2021/09/01 03:45:23;;;;;;;;;;;;;;;26.15;32.50;100634.91;5098149;28;831;-27
2021/09/01 03:47:49;;;;;;;;;;;;;;;26.12;32.99;100632.59;5097800;28;1972;-24
2021/09/01 03:50:14;;;;;;;;;;;;;;;25.46;33.95;100629.19;5098137;28;1072;-24
2021/09/01 03:52:39;;;;;;;;;;;;;;;26.01;32.77;100629.28;5097874;28;775;-24
2021/09/01 03:55:08;;;;;;;;;;;;;;;25.97;32.17;100630.66;5096366;28;1139;-36
2021/09/01 03:57:34;;;;;;;;;;;;;;;26.18;32.30;100642.66;5086319;28;1527;-34
2021/09/01 03:59:59;;;;;;;;;;;;;;;26.21;32.22;100641.47;5077292;28;795;-30
2021/09/01 04:02:25;;;;;;;;;;;;;;;25.60;33.13;100638.41;5078140;28;842;-34
2021/09/01 04:04:50;;;;;;;;;;;;;;;26.33;34.44;100639.19;5077654;28;835;-34
2021/09/01 04:07:15;;;;;;;;;;;;;;;22.10;42.87;100623.91;5076998;28;1909;-30
2021/09/01 04:09:41;;;;;;;;;;;;;;;20.90;47.56;100628.88;5077626;28;890;-29
2021/09/01 04:12:06;;;;;;;;;;;;;;;20.51;49.70;100628.94;5077188;28;891;-34
2021/09/01 04:14:31;;;;;;;;;;;;;;;21.30;50.99;100631.50;5077585;28;841;-32
2021/09/01 04:16:57;;;;;;;;;;;;;;;24.44;40.59;100634.91;5077280;28;971;-35
2021/09/01 04:19:22;;;;;;;;;;;;;;;25.42;39.05;100636.78;5077266;28;883;-35
2021/09/01 04:21:47;;;;;;;;;;;;;;;26.20;36.35;100639.75;5077058;28;797;-35
2021/09/01 04:24:13;;;;;;;;;;;;;;;26.57;36.24;100646.25;5076961;28;828;-35
2021/09/01 04:26:38;;;;;;;;;;;;;;;26.48;37.48;100652.72;5080011;28;1966;-35
2021/09/01 04:29:03;;;;;;;;;;;;;;;26.88;35.70;100653.41;5097214;28;803;-33
2021/09/01 04:31:29;;;;;;;;;;;;;;;26.78;37.00;100655.50;5097580;28;790;-32
2021/09/01 04:33:54;;;;;;;;;;;;;;;27.07;37.14;100658.47;5097393;28;879;-27
2021/09/01 04:36:19;;;;;;;;;;;;;;;27.06;36.43;100654.09;5097375;28;819;-32
2021/09/01 04:38:45;;;;;;;;;;;;;;;26.91;38.13;100662.97;5096588;28;812;-35
2021/09/01 04:41:10;;;;;;;;;;;;;;;27.25;36.17;100656.25;5097154;28;748;-32
2021/09/01 04:43:35;;;;;;;;;;;;;;;24.95;40.39;100659.97;5077196;28;946;-34
2021/09/01 04:46:01;;;;;;;;;;;;;;;21.92;50.42;100659.53;5076899;28;839;-33
2021/09/01 04:48:26;;;;;;;;;;;;;;;23.56;46.88;100661.19;5076363;28;1965;-34
2021/09/01 04:50:52;;;;;;;;;;;;;;;25.59;39.16;100660.13;5076858;28;772;-33
2021/09/01 04:53:17;;;;;;;;;;;;;;;26.21;37.82;100663.03;5077060;28;716;-32
2021/09/01 04:55:43;;;;;;;;;;;;;;;26.38;38.43;100666.47;5076590;28;776;-36
2021/09/01 04:58:09;;;;;;;;;;;;;;;26.74;35.34;100668.53;5091158;28;1005;-34
2021/09/01 05:00:34;;;;;;;;;;;;;;;26.69;36.51;100678.19;5096831;28;783;-27
2021/09/01 05:02:59;;;;;;;;;;;;;;;26.95;35.89;100680.50;5096526;28;815;-28
2021/09/01 05:05:24;;;;;;;;;;;;;;;23.26;44.60;100676.78;5096696;28;763;-34
2021/09/01 05:07:50;;;;;;;;;;;;;;;22.48;49.55;100677.38;5096329;28;1914;-33
2021/09/01 05:10:15;;;;;;;;;;;;;;;25.22;39.54;100670.50;5096800;28;847;-35
2021/09/01 05:12:42;;;;;;;;;;;;;;;25.92;38.88;100674.28;5096133;28;993;-29
2021/09/01 05:15:08;;;;;;;;;;;;;;;26.65;36.94;100675.88;5096768;28;791;-35
2021/09/01 05:17:33;;;;;;;;;;;;;;;22.81;45.52;100671.47;5096465;28;863;-36
2021/09/01 05:19:58;;;;;;;;;;;;;;;23.79;44.74;100674.91;5096768;28;756;-34
2021/09/01 05:22:24;;;;;;;;;;;;;;;25.83;38.53;100677.22;5096371;28;740;-34
2021/09/01 05:25:05;;;;;;;;;;;;;;;26.44;37.68;100673.84;5096329;28;831;-26
2021/09/01 05:27:31;;;;;;;;;;;;;;;26.43;38.17;100682.94;5095417;28;1957;-28
2021/09/01 05:29:57;;;;;;;;;;;;;;;27.07;35.93;100682.78;5096217;28;801;-35
2021/09/01 05:32:23;;;;;;;;;;;;;;;27.00;36.30;100675.38;5095250;28;966;-28
2021/09/01 05:34:48;;;;;;;;;;;;;;;26.95;37.46;100677.78;5096629;28;799;-36
2021/09/01 05:37:14;;;;;;;;;;;;;;;22.47;47.02;100673.00;5096046;28;855;-29
2021/09/01 05:39:40;;;;;;;;;;;;;;;24.04;44.25;100666.09;5096099;28;784;-33
2021/09/01 05:42:05;;;;;;;;;;;;;;;25.95;39.29;100666.88;5095506;28;944;-35
2021/09/01 05:44:31;;;;;;;;;;;;;;;26.61;36.91;100669.16;5095778;28;838;-35
2021/09/01 05:46:56;;;;;;;;;;;;;;;26.59;37.42;100673.06;5096406;28;1905;-36
2021/09/01 05:49:22;;;;;;;;;;;;;;;27.18;34.97;100667.97;5095050;28;1102;-32
2021/09/01 05:51:48;;;;;;;;;;;;;;;24.42;40.17;100663.81;5095972;28;823;-35
2021/09/01 05:54:13;;;;;;;;;;;;;;;21.68;49.47;100657.38;5095124;28;796;-34
2021/09/01 05:56:39;;;;;;;;;;;;;;;24.49;41.70;100661.28;5095418;28;989;-29
2021/09/01 05:59:07;;;;;;;;;;;;;;;25.82;39.76;100653.97;5095464;28;844;-34
2021/09/01 06:01:33;;;;;;;;;;;;;;;26.64;35.49;100654.47;5096923;28;1041;-33
2021/09/01 06:04:00;;;;;;;;;;;;;;;26.79;35.52;100662.59;5095557;28;807;-32
2021/09/01 06:06:26;;;;;;;;;;;;;;;27.08;36.11;100652.88;5096452;28;1902;-35
2021/09/01 06:08:51;;;;;;;;;;;;;;;22.67;44.41;100646.06;5100183;28;747;-28
2021/09/01 06:11:16;;;;;;;;;;;;;;;23.70;43.68;100652.56;5100551;28;795;-34
2021/09/01 06:13:42;;;;;;;;;;;;;;;25.88;36.32;100637.94;5097578;28;990;-35
2021/09/01 06:16:07;;;;;;;;;;;;;;;26.39;36.21;100644.69;5100403;28;747;-35
2021/09/01 06:18:32;;;;;;;;;;;;;;;26.59;36.76;100646.09;5100505;28;799;-35
2021/09/01 06:20:58;;;;;;;;;;;;;;;22.11;46.44;100642.50;5099614;28;763;-34
2021/09/01 06:23:24;;;;;;;;;;;;;;;24.24;42.17;100652.38;5100661;28;764;-31
2021/09/01 06:25:49;;;;;;;;;;;;;;;26.04;36.87;100633.50;5100156;28;795;-34
2021/09/01 06:28:15;;;;;;;;;;;;;;;22.72;44.68;100638.41;5099041;28;1981;-33
2021/09/01 06:30:40;;;;;;;;;;;;;;;22.36;48.11;100632.03;5100385;28;712;-33
2021/09/01 06:33:07;;;;;;;;;;;;;;;25.39;38.84;100644.38;5099776;28;792;-34
2021/09/01 06:35:32;;;;;;;;;;;;;;;25.26;37.89;100636.84;5099581;28;780;-33
2021/09/01 06:37:57;;;;;;;;;;;;;;;22.01;49.20;100647.09;5099848;28;736;-33
2021/09/01 06:40:23;;;;;;;;;;;;;;;25.00;39.91;100646.00;5098663;28;750;-28
2021/09/01 06:42:48;;;;;;;;;;;;;;;26.06;38.49;100647.59;5098559;28;942;-28
2021/09/01 06:45:13;;;;;;;;;;;;;;;21.84;47.86;100652.25;5099841;28;797;-33
2021/09/01 06:47:45;;;;;;;;;;;;;;;24.14;43.77;100653.31;5099447;28;1975;-34
2021/09/01 06:50:11;;;;;;;;;;;;;;;25.95;40.08;100654.25;5099068;28;1067;-29
2021/09/01 06:52:36;;;;;;;;;;;;;;;22.39;46.53;100650.47;5099757;28;796;-34
2021/09/01 06:55:01;;;;;;;;;;;;;;;23.19;46.68;100660.50;5098864;28;1130;-35
2021/09/01 06:57:27;;;;;;;;;;;;;;;25.71;38.92;100655.22;5089443;28;996;-33
2021/09/01 06:59:52;;;;;;;;;;;;;;;23.29;44.50;100658.53;5078648;28;839;-32
2021/09/01 07:02:17;;;;;;;;;;;;;;;22.37;49.27;100657.81;5078808;28;819;-34
2021/09/01 07:04:42;;;;;;;;;;;;;;;25.22;41.01;100651.66;5078792;28;748;-32
2021/09/01 07:07:08;;;;;;;;;;;;;;;25.88;37.43;100659.50;5079122;28;1971;-33
2021/09/01 07:09:33;;;;;;;;;;;;;;;21.99;47.82;100657.09;5079014;28;847;-28
2021/09/01 07:11:58;;;;;;;;;;;;;;;24.43;43.25;100654.75;5078031;28;974;-34
2021/09/01 07:14:24;;;;;;;;;;;;;;;26.10;38.61;100656.19;5079096;28;827;-34
2021/09/01 07:16:49;;;;;;;;;;;;;;;22.35;47.25;100645.59;5078882;28;760;-34
2021/09/01 07:19:15;;;;;;;;;;;;;;;22.74;49.58;100653.31;5077103;28;772;-33
2021/09/01 07:21:40;;;;;;;;;;;;;;;25.53;40.64;100650.88;5078959;28;806;-36
2021/09/01 07:24:05;;;;;;;;;;;;;;;22.78;47.06;100658.38;5078683;28;898;-36
2021/09/01 07:26:30;;;;;;;;;;;;;;;22.37;50.61;100652.47;5078506;28;1918;-35
2021/09/01 07:28:56;;;;;;;;;;;;;;;25.33;41.73;100662.06;5079101;28;772;-35
2021/09/01 07:31:21;;;;;;;;;;;;;;;22.34;48.69;100665.31;5078458;28;758;-33
2021/09/01 07:33:46;;;;;;;;;;;;;;;23.44;48.08;100658.00;5078028;28;1621;-34
2021/09/01 07:36:12;;;;;;;;;;;;;;;25.34;40.59;100654.84;5078364;28;835;-33
2021/09/01 07:38:37;;;;;;;;;;;;;;;21.88;50.28;100647.44;5077926;28;859;-34
2021/09/01 07:41:02;;;;;;;;;;;;;;;24.41;45.35;100653.22;5078207;28;911;-33
2021/09/01 07:43:29;;;;;;;;;;;;;;;22.85;46.54;100641.50;5078544;28;1010;-32
2021/09/01 07:45:55;;;;;;;;;;;;;;;23.03;49.27;100647.81;5078233;28;763;-33
2021/09/01 07:48:20;;;;;;;;;;;;;;;25.57;41.59;100638.75;5077747;28;1969;-34
2021/09/01 07:50:45;;;;;;;;;;;;;;;22.25;48.13;100643.81;5077525;28;804;-33
2021/09/01 07:53:10;;;;;;;;;;;;;;;23.54;46.66;100645.25;5077798;28;863;-34
2021/09/01 07:55:36;;;;;;;;;;;;;;;25.75;41.17;100640.38;5077987;28;836;-34
2021/09/01 07:58:01;;;;;;;;;;;;;;;22.26;47.94;100639.31;5091906;28;970;-32
2021/09/01 08:00:27;;;;;;;;;;;;;;;25.05;42.33;100635.56;5098236;28;749;-34
2021/09/01 08:02:53;;;;;;;;;;;;;;;22.78;45.96;100631.53;5098071;28;833;-32
2021/09/01 08:05:18;;;;;;;;;;;;;;;23.40;46.76;100630.63;5098155;28;743;-34
2021/09/01 08:07:44;;;;;;;;;;;;;;;25.73;39.99;100621.69;5097577;28;1902;-34
2021/09/01 08:10:09;;;;;;;;;;;;;;;22.13;46.54;100628.97;5098041;28;752;-33
2021/09/01 08:12:34;;;;;;;;;;;;;;;24.17;43.23;100628.84;5097146;28;1001;-35
2021/09/01 08:15:00;;;;;;;;;;;;;;;24.18;40.42;100621.63;5097931;28;779;-35
2021/09/01 08:17:25;;;;;;;;;;;;;;;21.88;48.51;100618.84;5097445;28;860;-33
2021/09/01 08:19:50;;;;;;;;;;;;;;;24.83;41.95;100629.84;5097795;28;788;-34
2021/09/01 08:22:16;;;;;;;;;;;;;;;22.81;44.65;100625.88;5097264;28;874;-35
2021/09/01 08:24:43;;;;;;;;;;;;;;;22.93;46.55;100627.31;5097990;28;783;-33
2021/09/01 08:27:09;;;;;;;;;;;;;;;25.62;39.58;100624.75;5096310;28;1898;-33
2021/09/01 08:29:34;;;;;;;;;;;;;;;22.36;45.18;100615.09;5096978;28;771;-32
2021/09/01 08:32:00;;;;;;;;;;;;;;;23.37;44.24;100622.84;5097622;28;839;-28
2021/09/01 08:34:25;;;;;;;;;;;;;;;25.71;38.37;100604.88;5097557;28;850;-35
2021/09/01 08:36:50;;;;;;;;;;;;;;;22.41;44.00;100601.22;5097490;28;818;-29
2021/09/01 08:39:16;;;;;;;;;;;;;;;21.91;44.91;100606.97;5097680;28;830;-32
2021/09/01 08:41:41;;;;;;;;;;;;;;;24.28;40.38;100613.41;5096018;28;926;-33
2021/09/01 08:44:06;;;;;;;;;;;;;;;23.75;37.96;100605.56;5096519;28;950;-28
2021/09/01 08:46:32;;;;;;;;;;;;;;;21.95;43.81;100607.53;5097749;28;1902;-31
2021/09/01 08:48:58;;;;;;;;;;;;;;;21.86;44.03;100604.75;5097197;28;1091;-34
2021/09/01 08:51:23;;;;;;;;;;;;;;;23.56;40.64;100597.63;5094967;28;819;-27
2021/09/01 08:53:48;;;;;;;;;;;;;;;25.68;35.74;100606.06;5097473;28;764;-30
2021/09/01 08:56:13;;;;;;;;;;;;;;;23.04;39.01;100593.16;5096788;28;780;-34
2021/09/01 08:58:39;;;;;;;;;;;;;;;22.07;41.92;100578.69;5096602;28;1136;-31
2021/09/01 09:01:04;;;;;;;;;;;;;;;21.12;46.26;100568.06;5097229;28;783;-34
2021/09/01 09:03:30;;;;;;;;;;;;;;;22.71;44.80;100578.56;5096933;28;812;-30
2021/09/01 09:06:01;;;;;;;;;;;;;;;25.17;38.73;100577.63;5095869;28;894;-33
2021/09/01 09:08:26;;;;;;;;;;;;;;;21.28;49.49;100580.81;5096981;28;1979;-33
2021/09/01 09:10:52;;;;;;;;;;;;;;;23.63;44.86;100581.69;5095301;28;1341;-32
2021/09/01 09:13:28;;;;;;;;;;;;;;;23.52;43.22;100573.94;5096042;28;954;-35
2021/09/01 09:16:07;;;;;;;;;;;;;;;21.25;52.24;100574.91;5096733;28;835;-35
2021/09/01 09:18:32;;;;;;;;;;;;;;;24.29;45.25;100580.16;5096670;28;796;-35
2021/09/01 09:21:16;;;;;;;;;;;;;;;22.61;49.04;100572.44;5096789;28;816;-35
2021/09/01 09:23:42;;;;;;;;;;;;;;;22.67;52.76;100571.81;5097095;28;824;-28
2021/09/01 09:26:23;;;;;;;;;;;;;;;25.27;44.19;100565.84;5096472;28;740;-32
2021/09/01 09:29:07;;;;;;;;;;;;;;;21.84;53.24;100573.75;5076957;28;796;-32
2021/09/01 09:31:33;;;;;;;;;;;;;;;23.39;51.61;100580.56;5076854;28;822;-29
2021/09/01 09:34:05;;;;;;;;;;;;;;;23.96;47.47;100562.09;5076053;28;871;-34
2021/09/01 09:36:30;;;;;;;;;;;;;;;21.88;54.83;100559.09;5076662;28;864;-33
2021/09/01 09:38:56;;;;;;;;;;;;;;;22.93;54.91;100562.06;5076427;28;839;-31
2021/09/01 09:41:22;;;;;;;;;;;;;;;25.31;46.88;100559.06;5076662;28;1006;-32
2021/09/01 09:43:48;;;;;;;;;;;;;;;22.01;55.37;100564.91;5080862;28;838;-34
2021/09/01 09:46:13;;;;;;;;;;;;;;;21.22;58.92;100546.59;5080152;28;855;-32
2021/09/01 09:48:39;;;;;;;;;;;;;;;22.71;57.69;100549.06;5079968;28;1959;-34
2021/09/01 09:51:05;;;;;;;;;;;;;;;25.00;48.46;100543.72;5080708;28;771;-32
2021/09/01 09:53:31;;;;;;;;;;;;;;;21.90;57.59;100535.69;5080618;28;750;-31
2021/09/01 09:56:23;;;;;;;;;;;;;;;21.96;61.66;100528.84;5079871;28;799;-35
2021/09/01 09:58:49;;;;;;;;;;;;;;;25.10;49.26;100530.06;5076897;28;1912;-35
2021/09/01 10:01:15;;;;;;;;;;;;;;;22.02;57.24;100525.56;5080381;28;732;-31
2021/09/01 10:03:40;;;;;;;;;;;;;;;22.12;60.77;100522.81;5079873;28;1531;-31
2021/09/01 10:06:07;;;;;;;;;;;;;;;24.82;50.88;100504.44;5080283;28;486;-35
2021/09/01 10:08:33;;;;;;;;;;;;;;;22.56;55.62;100524.63;5080131;28;1964;-34
2021/09/01 10:11:00;;;;;;;;;;;;;;;23.48;56.13;100517.03;5079880;28;851;-33
2021/09/01 10:13:26;;;;;;;;;;;;;;;25.42;48.13;100512.09;5079793;28;998;-34
2021/09/01 10:15:51;;;;;;;;;;;;;;;22.27;55.72;100518.56;5079638;28;808;-33
2021/09/01 10:18:17;;;;;;;;;;;;;;;23.27;56.40;100521.00;5092335;28;946;-35
2021/09/01 10:20:42;;;;;;;;;;;;;;;25.26;48.09;100513.84;5100250;28;731;-27
2021/09/01 10:23:10;;;;;;;;;;;;;;;22.19;56.11;100515.81;5098768;28;813;-34
2021/09/01 10:25:36;;;;;;;;;;;;;;;23.35;55.61;100507.59;5099795;28;741;-32
2021/09/01 10:28:25;;;;;;;;;;;;;;;25.43;47.09;100502.97;5098897;28;1956;-30
2021/09/01 10:31:11;;;;;;;;;;;;;;;22.19;56.15;100501.59;5089177;28;1685;-27
2021/09/01 10:33:41;;;;;;;;;;;;;;;22.41;60.28;100510.97;5085759;28;2024;-33
2021/09/01 10:36:24;;;;;;;;;;;;;;;25.20;48.31;100509.16;5099945;28;825;-31
2021/09/01 10:38:55;;;;;;;;;;;;;;;22.24;56.56;100507.31;5098924;28;799;-29
2021/09/01 10:41:27;;;;;;;;;;;;;;;21.45;59.86;100511.44;5099127;28;1006;-31
2021/09/01 10:43:55;;;;;;;;;;;;;;;22.46;60.63;100500.63;5099312;28;846;-33
2021/09/01 10:46:20;;;;;;;;;;;;;;;25.05;50.52;100501.84;5098966;28;1910;-32
2021/09/01 10:48:56;;;;;;;;;;;;;;;22.12;58.11;100496.84;5099302;28;1199;-33
2021/09/01 10:51:25;;;;;;;;;;;;;;;22.09;62.74;100497.16;5099705;28;738;-29
2021/09/01 10:53:53;;;;;;;;;;;;;;;24.98;51.36;100486.56;5099348;28;1694;-30
2021/09/01 10:56:18;;;;;;;;;;;;;;;22.53;56.81;100497.28;5099190;28;1109;-33
2021/09/01 10:58:44;;;;;;;;;;;;;;;21.56;60.11;100482.75;5098897;28;997;-28
2021/09/01 11:01:16;;;;;;;;;;;;;;;24.04;54.71;100483.38;5099513;28;784;-29
2021/09/01 11:03:48;;;;;;;;;;;;;;;23.25;54.18;100482.75;5099096;28;808;-30
2021/09/01 11:06:18;;;;;;;;;;;;;;;21.87;58.67;100480.56;5099560;28;746;-34
2021/09/01 11:08:55;;;;;;;;;;;;;;;23.12;58.12;100485.88;5098690;28;823;-29
2021/09/01 11:11:21;;;;;;;;;;;;;;;24.34;49.74;100339.38;5098306;28;954;-31
2021/09/01 11:13:46;;;;;;;;;;;;;;;22.34;57.37;100481.25;5098809;28;828;-30
2021/09/01 11:16:21;;;;;;;;;;;;;;;21.47;60.35;100473.81;5098928;28;777;-28
2021/09/01 11:18:58;;;;;;;;;;;;;;;24.12;53.73;100464.56;5099343;28;760;-35
2021/09/01 11:21:23;;;;;;;;;;;;;;;23.15;54.20;100460.56;5098916;28;1028;-35
2021/09/01 11:23:49;;;;;;;;;;;;;;;21.86;58.71;100454.81;5098384;28;1674;-34
2021/09/01 11:26:14;;;;;;;;;;;;;;;23.62;55.80;100459.19;5098925;28;808;-35
2021/09/01 11:28:39;;;;;;;;;;;;;;;24.28;51.69;100452.13;5095893;28;1977;-30
2021/09/01 11:31:17;;;;;;;;;;;;;;;22.10;57.72;100436.41;5098654;28;772;-27
2021/09/01 11:33:42;;;;;;;;;;;;;;;23.05;58.32;100444.59;5098891;28;827;-36
2021/09/01 11:36:07;;;;;;;;;;;;;;;25.39;48.94;100442.44;5098519;28;855;-35
2021/09/01 11:38:33;;;;;;;;;;;;;;;22.55;56.23;100433.66;5098547;28;789;-35
2021/09/01 11:40:58;;;;;;;;;;;;;;;22.99;58.76;100425.47;5098491;28;835;-33
2021/09/01 11:43:23;;;;;;;;;;;;;;;25.35;49.31;100427.63;5098178;28;914;-34
2021/09/01 11:45:49;;;;;;;;;;;;;;;22.38;56.58;100421.00;5097091;28;1161;-27
2021/09/01 11:48:15;;;;;;;;;;;;;;;21.51;60.39;100414.50;5098598;28;1973;-34
2021/09/01 11:50:41;;;;;;;;;;;;;;;23.68;56.44;100410.19;5098601;28;812;-30
2021/09/01 11:53:11;;;;;;;;;;;;;;;23.76;53.45;100413.84;5098650;28;803;-35
2021/09/01 11:55:36;;;;;;;;;;;;;;;22.06;58.99;100409.09;5098128;28;767;-32
2021/09/01 11:58:17;;;;;;;;;;;;;;;21.80;61.92;100401.88;5097190;28;1032;-31
2021/09/01 12:00:43;;;;;;;;;;;;;;;24.76;53.27;100406.41;5098033;28;877;-27
2021/09/01 12:03:11;;;;;;;;;;;;;;;22.63;58.24;100414.94;5097461;28;760;-35
2021/09/01 12:05:37;;;;;;;;;;;;;;;22.20;61.31;100407.69;5097258;28;771;-33
2021/09/01 12:08:02;;;;;;;;;;;;;;;24.89;52.97;100400.47;5097725;28;1921;-34
2021/09/01 12:10:29;;;;;;;;;;;;;;;22.73;57.65;100391.53;5097876;28;740;-34
2021/09/01 12:13:01;;;;;;;;;;;;;;;21.83;60.77;100398.88;5097738;28;997;-32
2021/09/01 12:15:27;;;;;;;;;;;;;;;22.53;63.72;100396.28;5097203;28;875;-32
2021/09/01 12:17:59;;;;;;;;;;;;;;;25.24;52.23;100386.66;5097902;28;728;-34
2021/09/01 12:20:24;;;;;;;;;;;;;;;22.37;59.55;100380.97;5097428;28;882;-31
2021/09/01 12:22:50;;;;;;;;;;;;;;;21.64;62.20;100373.94;5097613;28;763;-34
2021/09/01 12:25:16;;;;;;;;;;;;;;;24.00;56.68;100364.66;5097512;28;755;-32
2021/09/01 12:28:02;;;;;;;;;;;;;;;24.06;53.79;100365.78;5096751;28;1971;-27
2021/09/01 12:30:28;;;;;;;;;;;;;;;22.08;60.11;100377.63;5097262;28;939;-35
2021/09/01 12:32:59;;;;;;;;;;;;;;;22.31;63.16;100384.25;5097286;28;864;-34
2021/09/01 12:35:25;;;;;;;;;;;;;;;25.06;52.70;100368.94;5097762;28;830;-33
2021/09/01 12:37:52;;;;;;;;;;;;;;;22.51;58.49;100358.06;5095458;28;803;-34
2021/09/01 12:40:18;;;;;;;;;;;;;;;21.57;61.67;100354.13;5078226;28;847;-34
2021/09/01 12:42:44;;;;;;;;;;;;;;;22.30;64.35;100359.34;5078143;28;864;-29
2021/09/01 12:45:09;;;;;;;;;;;;;;;25.03;52.36;100360.38;5076794;28;823;-33
2021/09/01 12:47:35;;;;;;;;;;;;;;;22.37;58.65;100367.56;5079007;28;1967;-35
2021/09/01 12:50:00;;;;;;;;;;;;;;;21.56;61.27;100357.81;5077449;28;1082;-31
2021/09/01 12:52:26;;;;;;;;;;;;;;;24.05;55.63;100356.06;5078817;28;844;-35